Terminal Aerodrome Forecast
Issued by NWS

Home | Current Version | Previous Version | Graphics & Text | Print | Product List | Glossary On
Versions: 1 2 3 4 5 6 7 8 9 10 11 12 13
000
FTUS43 KMPX 252300 RRA
TAFAXN
TAF
KAXN 252339Z 2600/2624 36007KT P6SM OVC014
     FM260300 35008KT 6SM -SHSN BR OVC010
      TEMPO 2604/2608 4SM -SN BR OVC007
     FM260800 35009KT 6SM BR OVC008
     FM261800 34010KT P6SM OVC014=

USA.gov is the U.S. government's official web portal to all federal, state and local government web resources and services.